sensor_id;sensor_type;location;lat;lon;timestamp;pressure;altitude;pressure_sealevel;temperature;humidity
25498;BME280;13406;53.380;7.226;2023-04-26T00:02:11;101681.38;;;6.11;100.00
25498;BME280;13406;53.380;7.226;2023-04-26T00:04:40;101665.09;;;6.15;100.00
25498;BME280;13406;53.380;7.226;2023-04-26T00:07:06;101654.59;;;5.85;100.00
25498;BME280;13406;53.380;7.226;2023-04-26T00:09:32;101715.56;;;6.16;100.00
25498;BME280;13406;53.380;7.226;2023-04-26T00:11:57;101699.50;;;5.71;100.00
25498;BME280;13406;53.380;7.226;2023-04-26T00:14:23;101695.59;;;5.93;100.00
25498;BME280;13406;53.380;7.226;2023-04-26T00:16:48;101711.81;;;6.09;100.00
25498;BME280;13406;53.380;7.226;2023-04-26T00:19:14;101714.22;;;5.93;100.00
25498;BME280;13406;53.380;7.226;2023-04-26T00:21:40;101620.34;;;5.35;100.00
25498;BME280;13406;53.380;7.226;2023-04-26T00:24:06;101722.22;;;6.02;100.00
25498;BME280;13406;53.380;7.226;2023-04-26T00:26:32;101716.31;;;6.08;100.00
25498;BME280;13406;53.380;7.226;2023-04-26T00:28:58;101700.34;;;5.99;100.00
25498;BME280;13406;53.380;7.226;2023-04-26T00:31:24;101691.53;;;6.26;100.00
25498;BME280;13406;53.380;7.226;2023-04-26T00:33:50;101711.75;;;6.19;100.00
25498;BME280;13406;53.380;7.226;2023-04-26T00:36:15;101717.91;;;6.47;100.00
25498;BME280;13406;53.380;7.226;2023-04-26T00:38:44;101615.13;;;5.71;100.00
25498;BME280;13406;53.380;7.226;2023-04-26T00:41:10;101634.59;;;5.72;100.00
25498;BME280;13406;53.380;7.226;2023-04-26T00:43:35;101620.34;;;5.63;100.00
25498;BME280;13406;53.380;7.226;2023-04-26T00:46:01;101711.69;;;6.10;100.00
25498;BME280;13406;53.380;7.226;2023-04-26T00:48:26;101619.59;;;5.43;100.00
25498;BME280;13406;53.380;7.226;2023-04-26T00:50:52;101706.88;;;6.14;100.00
25498;BME280;13406;53.380;7.226;2023-04-26T00:53:17;101699.69;;;5.87;100.00
25498;BME280;13406;53.380;7.226;2023-04-26T00:55:43;101712.16;;;5.96;100.00
25498;BME280;13406;53.380;7.226;2023-04-26T00:58:10;101712.63;;;5.72;100.00
25498;BME280;13406;53.380;7.226;2023-04-26T01:00:36;101705.94;;;5.68;100.00
25498;BME280;13406;53.380;7.226;2023-04-26T01:03:01;101703.22;;;5.78;100.00
25498;BME280;13406;53.380;7.226;2023-04-26T01:05:27;101686.50;;;5.58;100.00
25498;BME280;13406;53.380;7.226;2023-04-26T01:07:53;101697.88;;;5.50;100.00
25498;BME280;13406;53.380;7.226;2023-04-26T01:10:18;101639.56;;;5.19;100.00
25498;BME280;13406;53.380;7.226;2023-04-26T01:12:44;101703.81;;;5.72;100.00
25498;BME280;13406;53.380;7.226;2023-04-26T01:15:10;101635.97;;;5.48;100.00
25498;BME280;13406;53.380;7.226;2023-04-26T01:17:36;101695.06;;;5.89;100.00
25498;BME280;13406;53.380;7.226;2023-04-26T01:20:05;101607.34;;;5.22;100.00
25498;BME280;13406;53.380;7.226;2023-04-26T01:22:36;101721.22;;;6.03;100.00
25498;BME280;13406;53.380;7.226;2023-04-26T01:25:03;101685.31;;;5.33;100.00
25498;BME280;13406;53.380;7.226;2023-04-26T01:27:31;101725.00;;;5.63;100.00
25498;BME280;13406;53.380;7.226;2023-04-26T01:29:57;101736.63;;;5.62;100.00
25498;BME280;13406;53.380;7.226;2023-04-26T01:32:22;101690.00;;;5.58;100.00
25498;BME280;13406;53.380;7.226;2023-04-26T01:34:48;101704.53;;;5.74;100.00
25498;BME280;13406;53.380;7.226;2023-04-26T01:37:13;101719.16;;;5.50;100.00
25498;BME280;13406;53.380;7.226;2023-04-26T01:39:38;101691.84;;;5.48;100.00
25498;BME280;13406;53.380;7.226;2023-04-26T01:42:04;101650.66;;;5.05;100.00
25498;BME280;13406;53.380;7.226;2023-04-26T01:44:29;101734.25;;;5.59;100.00
25498;BME280;13406;53.380;7.226;2023-04-26T01:46:55;101621.81;;;5.10;100.00
25498;BME280;13406;53.380;7.226;2023-04-26T01:49:21;101725.28;;;5.70;100.00
25498;BME280;13406;53.380;7.226;2023-04-26T01:51:46;101715.47;;;5.61;100.00
25498;BME280;13406;53.380;7.226;2023-04-26T01:54:12;101643.47;;;5.25;100.00
25498;BME280;13406;53.380;7.226;2023-04-26T01:56:37;101711.72;;;5.91;100.00
25498;BME280;13406;53.380;7.226;2023-04-26T01:59:02;101544.75;;;4.91;100.00
25498;BME280;13406;53.380;7.226;2023-04-26T02:01:28;101646.94;;;5.35;100.00
25498;BME280;13406;53.380;7.226;2023-04-26T02:03:53;101556.78;;;4.85;100.00
25498;BME280;13406;53.380;7.226;2023-04-26T02:06:19;101559.16;;;4.98;100.00
25498;BME280;13406;53.380;7.226;2023-04-26T02:08:45;101495.16;;;4.62;100.00
25498;BME280;13406;53.380;7.226;2023-04-26T02:11:11;101668.16;;;5.55;100.00
25498;BME280;13406;53.380;7.226;2023-04-26T02:13:36;101584.22;;;5.33;100.00
25498;BME280;13406;53.380;7.226;2023-04-26T02:16:02;101712.91;;;5.79;100.00
25498;BME280;13406;53.380;7.226;2023-04-26T02:18:28;101651.81;;;5.50;100.00
25498;BME280;13406;53.380;7.226;2023-04-26T02:20:54;101574.78;;;5.11;100.00
25498;BME280;13406;53.380;7.226;2023-04-26T02:23:19;101708.84;;;6.12;100.00
25498;BME280;13406;53.380;7.226;2023-04-26T02:25:45;101698.72;;;5.88;100.00
25498;BME280;13406;53.380;7.226;2023-04-26T02:28:14;101711.09;;;5.79;100.00
25498;BME280;13406;53.380;7.226;2023-04-26T02:30:41;101587.28;;;5.01;100.00
25498;BME280;13406;53.380;7.226;2023-04-26T02:33:07;101601.56;;;4.90;100.00
25498;BME280;13406;53.380;7.226;2023-04-26T02:35:33;101598.72;;;5.11;100.00
25498;BME280;13406;53.380;7.226;2023-04-26T02:37:59;101637.91;;;5.56;100.00
25498;BME280;13406;53.380;7.226;2023-04-26T02:40:24;101596.81;;;5.31;100.00
25498;BME280;13406;53.380;7.226;2023-04-26T02:42:50;101711.09;;;6.17;100.00
25498;BME280;13406;53.380;7.226;2023-04-26T02:45:15;101692.09;;;5.92;100.00
25498;BME280;13406;53.380;7.226;2023-04-26T02:47:40;101638.75;;;5.56;100.00
25498;BME280;13406;53.380;7.226;2023-04-26T02:50:07;101689.88;;;5.97;100.00
25498;BME280;13406;53.380;7.226;2023-04-26T02:52:34;101703.22;;;6.15;100.00
25498;BME280;13406;53.380;7.226;2023-04-26T02:55:00;101585.06;;;5.33;100.00
25498;BME280;13406;53.380;7.226;2023-04-26T02:57:26;101645.16;;;5.63;100.00
25498;BME280;13406;53.380;7.226;2023-04-26T02:59:52;101559.53;;;5.03;100.00
25498;BME280;13406;53.380;7.226;2023-04-26T03:02:17;101685.19;;;5.72;100.00
25498;BME280;13406;53.380;7.226;2023-04-26T03:04:43;101644.50;;;5.52;100.00
25498;BME280;13406;53.380;7.226;2023-04-26T03:07:08;101646.06;;;5.44;100.00
25498;BME280;13406;53.380;7.226;2023-04-26T03:09:34;101713.88;;;5.87;100.00
25498;BME280;13406;53.380;7.226;2023-04-26T03:12:02;101621.28;;;4.97;100.00
25498;BME280;13406;53.380;7.226;2023-04-26T03:14:28;101617.88;;;5.14;100.00
25498;BME280;13406;53.380;7.226;2023-04-26T03:16:53;101615.13;;;4.77;100.00
25498;BME280;13406;53.380;7.226;2023-04-26T03:19:19;101622.38;;;4.94;100.00
25498;BME280;13406;53.380;7.226;2023-04-26T03:21:44;101624.00;;;5.25;100.00
25498;BME280;13406;53.380;7.226;2023-04-26T03:24:11;101714.16;;;5.75;100.00
25498;BME280;13406;53.380;7.226;2023-04-26T03:26:36;101712.94;;;5.69;100.00
25498;BME280;13406;53.380;7.226;2023-04-26T03:29:02;101600.19;;;5.33;100.00
25498;BME280;13406;53.380;7.226;2023-04-26T03:31:28;101537.44;;;5.03;100.00
25498;BME280;13406;53.380;7.226;2023-04-26T03:33:53;101548.06;;;5.12;100.00
25498;BME280;13406;53.380;7.226;2023-04-26T03:36:18;101579.78;;;5.51;100.00
25498;BME280;13406;53.380;7.226;2023-04-26T03:38:44;101536.66;;;4.92;100.00
25498;BME280;13406;53.380;7.226;2023-04-26T03:41:10;101685.69;;;5.95;100.00
25498;BME280;13406;53.380;7.226;2023-04-26T03:43:35;101673.22;;;5.85;100.00
25498;BME280;13406;53.380;7.226;2023-04-26T03:46:01;101540.97;;;4.93;100.00
25498;BME280;13406;53.380;7.226;2023-04-26T03:48:26;101626.69;;;5.62;100.00
25498;BME280;13406;53.380;7.226;2023-04-26T03:50:52;101579.97;;;5.12;100.00
25498;BME280;13406;53.380;7.226;2023-04-26T03:53:18;101580.47;;;5.26;100.00
25498;BME280;13406;53.380;7.226;2023-04-26T03:55:43;101613.38;;;5.15;100.00
25498;BME280;13406;53.380;7.226;2023-04-26T03:58:09;101614.91;;;5.17;100.00
25498;BME280;13406;53.380;7.226;2023-04-26T04:00:37;101590.09;;;4.89;100.00
25498;BME280;13406;53.380;7.226;2023-04-26T04:03:04;101569.41;;;4.83;100.00
25498;BME280;13406;53.380;7.226;2023-04-26T04:05:29;101597.41;;;4.78;100.00
25498;BME280;13406;53.380;7.226;2023-04-26T04:07:55;101552.97;;;4.31;100.00
25498;BME280;13406;53.380;7.226;2023-04-26T04:10:21;101481.41;;;4.10;100.00
25498;BME280;13406;53.380;7.226;2023-04-26T04:12:47;101709.22;;;5.42;100.00
25498;BME280;13406;53.380;7.226;2023-04-26T04:15:13;101724.38;;;5.32;100.00
25498;BME280;13406;53.380;7.226;2023-04-26T04:17:38;101625.78;;;4.77;100.00
25498;BME280;13406;53.380;7.226;2023-04-26T04:20:05;101684.44;;;5.42;100.00
25498;BME280;13406;53.380;7.226;2023-04-26T04:22:31;101622.09;;;4.97;100.00
25498;BME280;13406;53.380;7.226;2023-04-26T04:24:57;101706.00;;;5.49;100.00
25498;BME280;13406;53.380;7.226;2023-04-26T04:27:23;101582.53;;;4.85;100.00
25498;BME280;13406;53.380;7.226;2023-04-26T04:29:49;101572.63;;;4.77;100.00
25498;BME280;13406;53.380;7.226;2023-04-26T04:32:15;101567.19;;;4.69;100.00
25498;BME280;13406;53.380;7.226;2023-04-26T04:34:41;101656.44;;;5.38;100.00
25498;BME280;13406;53.380;7.226;2023-04-26T04:37:07;101592.31;;;4.94;100.00
25498;BME280;13406;53.380;7.226;2023-04-26T04:39:33;101656.13;;;5.51;100.00
25498;BME280;13406;53.380;7.226;2023-04-26T04:41:59;101689.63;;;5.81;100.00
25498;BME280;13406;53.380;7.226;2023-04-26T04:44:25;101665.00;;;5.69;100.00
25498;BME280;13406;53.380;7.226;2023-04-26T04:46:51;101708.34;;;5.99;100.00
25498;BME280;13406;53.380;7.226;2023-04-26T04:49:17;101559.81;;;5.00;100.00
25498;BME280;13406;53.380;7.226;2023-04-26T04:51:43;101573.22;;;5.18;100.00
25498;BME280;13406;53.380;7.226;2023-04-26T04:54:17;101604.09;;;5.38;100.00
25498;BME280;13406;53.380;7.226;2023-04-26T04:56:44;101591.91;;;5.36;100.00
25498;BME280;13406;53.380;7.226;2023-04-26T04:59:10;101594.00;;;5.42;100.00
25498;BME280;13406;53.380;7.226;2023-04-26T05:01:36;101620.59;;;5.42;100.00
25498;BME280;13406;53.380;7.226;2023-04-26T05:04:03;101709.03;;;6.01;100.00
25498;BME280;13406;53.380;7.226;2023-04-26T05:06:29;101704.97;;;6.06;100.00
25498;BME280;13406;53.380;7.226;2023-04-26T05:08:56;101710.97;;;6.08;100.00
25498;BME280;13406;53.380;7.226;2023-04-26T05:11:22;101606.69;;;5.48;100.00
25498;BME280;13406;53.380;7.226;2023-04-26T05:13:47;101704.91;;;6.16;100.00
25498;BME280;13406;53.380;7.226;2023-04-26T05:16:13;101687.91;;;5.99;100.00
25498;BME280;13406;53.380;7.226;2023-04-26T05:18:38;101629.34;;;5.62;100.00
25498;BME280;13406;53.380;7.226;2023-04-26T05:21:04;101713.19;;;6.41;100.00
25498;BME280;13406;53.380;7.226;2023-04-26T05:23:29;101611.63;;;5.43;100.00
25498;BME280;13406;53.380;7.226;2023-04-26T05:25:55;101606.47;;;5.41;100.00
25498;BME280;13406;53.380;7.226;2023-04-26T05:28:21;101708.56;;;6.15;100.00
25498;BME280;13406;53.380;7.226;2023-04-26T05:30:47;101608.03;;;5.62;100.00
25498;BME280;13406;53.380;7.226;2023-04-26T05:33:12;101672.47;;;6.03;100.00
25498;BME280;13406;53.380;7.226;2023-04-26T05:35:38;101600.31;;;5.31;100.00
25498;BME280;13406;53.380;7.226;2023-04-26T05:38:03;101715.00;;;6.13;100.00
25498;BME280;13406;53.380;7.226;2023-04-26T05:40:29;101718.63;;;6.21;100.00
25498;BME280;13406;53.380;7.226;2023-04-26T05:42:55;101649.56;;;5.82;100.00
25498;BME280;13406;53.380;7.226;2023-04-26T05:45:21;101653.75;;;5.85;100.00
25498;BME280;13406;53.380;7.226;2023-04-26T05:47:47;101587.38;;;5.46;100.00
25498;BME280;13406;53.380;7.226;2023-04-26T05:50:12;101701.47;;;6.06;100.00
25498;BME280;13406;53.380;7.226;2023-04-26T05:52:38;101655.47;;;5.76;100.00
25498;BME280;13406;53.380;7.226;2023-04-26T05:55:03;101701.22;;;5.99;100.00
25498;BME280;13406;53.380;7.226;2023-04-26T05:57:30;101731.59;;;6.06;100.00
25498;BME280;13406;53.380;7.226;2023-04-26T05:59:55;101520.03;;;4.81;100.00
25498;BME280;13406;53.380;7.226;2023-04-26T06:02:21;101723.34;;;6.27;100.00
25498;BME280;13406;53.380;7.226;2023-04-26T06:04:47;101723.59;;;6.34;100.00
25498;BME280;13406;53.380;7.226;2023-04-26T06:07:12;101733.69;;;6.30;100.00
25498;BME280;13406;53.380;7.226;2023-04-26T06:09:38;101644.56;;;5.70;100.00
25498;BME280;13406;53.380;7.226;2023-04-26T06:12:03;101695.97;;;6.07;100.00
25498;BME280;13406;53.380;7.226;2023-04-26T06:14:29;101620.16;;;5.74;100.00
25498;BME280;13406;53.380;7.226;2023-04-26T06:16:55;101622.09;;;5.82;100.00
25498;BME280;13406;53.380;7.226;2023-04-26T06:19:21;101649.03;;;6.06;100.00
25498;BME280;13406;53.380;7.226;2023-04-26T06:21:46;101612.13;;;5.84;100.00
25498;BME280;13406;53.380;7.226;2023-04-26T06:24:13;101644.78;;;6.14;100.00
25498;BME280;13406;53.380;7.226;2023-04-26T06:26:38;101733.09;;;6.82;100.00
25498;BME280;13406;53.380;7.226;2023-04-26T06:29:04;101639.00;;;6.36;100.00
25498;BME280;13406;53.380;7.226;2023-04-26T06:31:30;101641.22;;;6.59;100.00
25498;BME280;13406;53.380;7.226;2023-04-26T06:33:56;101674.72;;;6.79;100.00
25498;BME280;13406;53.380;7.226;2023-04-26T06:36:21;101753.72;;;7.16;100.00
25498;BME280;13406;53.380;7.226;2023-04-26T06:38:47;101754.66;;;7.07;100.00
25498;BME280;13406;53.380;7.226;2023-04-26T06:41:12;101744.66;;;7.27;100.00
25498;BME280;13406;53.380;7.226;2023-04-26T06:43:38;101737.09;;;7.22;100.00
25498;BME280;13406;53.380;7.226;2023-04-26T06:46:04;101756.41;;;7.16;100.00
25498;BME280;13406;53.380;7.226;2023-04-26T06:48:29;101738.19;;;7.29;100.00
25498;BME280;13406;53.380;7.226;2023-04-26T06:50:54;101713.03;;;7.14;100.00
25498;BME280;13406;53.380;7.226;2023-04-26T06:53:20;101568.22;;;6.33;100.00
25498;BME280;13406;53.380;7.226;2023-04-26T06:55:46;101598.16;;;6.45;100.00
25498;BME280;13406;53.380;7.226;2023-04-26T06:58:11;101707.03;;;7.12;100.00
25498;BME280;13406;53.380;7.226;2023-04-26T07:00:37;101561.06;;;6.34;100.00
25498;BME280;13406;53.380;7.226;2023-04-26T07:03:02;101755.41;;;7.61;100.00
25498;BME280;13406;53.380;7.226;2023-04-26T07:05:27;101727.97;;;7.77;100.00
25498;BME280;13406;53.380;7.226;2023-04-26T07:07:53;101663.91;;;7.51;100.00
25498;BME280;13406;53.380;7.226;2023-04-26T07:10:18;101631.78;;;7.08;100.00
25498;BME280;13406;53.380;7.226;2023-04-26T07:12:45;101654.59;;;6.85;100.00
25498;BME280;13406;53.380;7.226;2023-04-26T07:15:11;101753.63;;;7.43;100.00
25498;BME280;13406;53.380;7.226;2023-04-26T07:17:36;101594.84;;;6.69;100.00
25498;BME280;13406;53.380;7.226;2023-04-26T07:20:02;101747.69;;;7.58;100.00
25498;BME280;13406;53.380;7.226;2023-04-26T07:22:28;101760.00;;;7.51;100.00
25498;BME280;13406;53.380;7.226;2023-04-26T07:24:53;101721.53;;;7.17;100.00
25498;BME280;13406;53.380;7.226;2023-04-26T07:27:19;101664.53;;;6.56;100.00
25498;BME280;13406;53.380;7.226;2023-04-26T07:29:44;101716.16;;;6.73;100.00
25498;BME280;13406;53.380;7.226;2023-04-26T07:32:10;101759.47;;;7.03;100.00
25498;BME280;13406;53.380;7.226;2023-04-26T07:34:35;101750.91;;;6.82;100.00
25498;BME280;13406;53.380;7.226;2023-04-26T07:37:01;101752.31;;;6.86;100.00
25498;BME280;13406;53.380;7.226;2023-04-26T07:39:26;101689.28;;;6.49;100.00
25498;BME280;13406;53.380;7.226;2023-04-26T07:41:51;101680.13;;;6.87;100.00
25498;BME280;13406;53.380;7.226;2023-04-26T07:44:17;101753.00;;;7.32;100.00
25498;BME280;13406;53.380;7.226;2023-04-26T07:46:42;101706.41;;;7.18;100.00
25498;BME280;13406;53.380;7.226;2023-04-26T07:49:08;101659.50;;;6.89;100.00
25498;BME280;13406;53.380;7.226;2023-04-26T07:51:34;101769.03;;;7.50;100.00
25498;BME280;13406;53.380;7.226;2023-04-26T07:54:00;101611.00;;;6.50;100.00
25498;BME280;13406;53.380;7.226;2023-04-26T07:56:26;101665.22;;;6.94;100.00
25498;BME280;13406;53.380;7.226;2023-04-26T07:58:51;101766.31;;;7.67;100.00
25498;BME280;13406;53.380;7.226;2023-04-26T08:01:17;101687.47;;;7.11;100.00
25498;BME280;13406;53.380;7.226;2023-04-26T08:03:42;101772.78;;;7.39;100.00
25498;BME280;13406;53.380;7.226;2023-04-26T08:06:08;101758.91;;;7.17;100.00
25498;BME280;13406;53.380;7.226;2023-04-26T08:08:34;101770.03;;;7.31;100.00
25498;BME280;13406;53.380;7.226;2023-04-26T08:11:06;101736.72;;;7.17;100.00
25498;BME280;13406;53.380;7.226;2023-04-26T08:13:31;101791.09;;;7.60;100.00
25498;BME280;13406;53.380;7.226;2023-04-26T08:15:57;101746.47;;;7.26;100.00
25498;BME280;13406;53.380;7.226;2023-04-26T08:18:22;101741.53;;;7.13;100.00
25498;BME280;13406;53.380;7.226;2023-04-26T08:20:48;101792.66;;;7.44;100.00
25498;BME280;13406;53.380;7.226;2023-04-26T08:23:13;101740.53;;;7.32;100.00
25498;BME280;13406;53.380;7.226;2023-04-26T08:25:38;101785.56;;;7.79;100.00
25498;BME280;13406;53.380;7.226;2023-04-26T08:28:04;101798.28;;;7.85;100.00
25498;BME280;13406;53.380;7.226;2023-04-26T08:30:32;101794.16;;;7.91;100.00
25498;BME280;13406;53.380;7.226;2023-04-26T08:32:57;101765.41;;;7.59;100.00
25498;BME280;13406;53.380;7.226;2023-04-26T08:35:23;101781.69;;;8.00;100.00
25498;BME280;13406;53.380;7.226;2023-04-26T08:37:48;101715.19;;;7.36;100.00
25498;BME280;13406;53.380;7.226;2023-04-26T08:40:21;101797.50;;;8.19;100.00
25498;BME280;13406;53.380;7.226;2023-04-26T08:42:47;101808.84;;;8.21;100.00
25498;BME280;13406;53.380;7.226;2023-04-26T08:45:13;101732.09;;;7.45;100.00
25498;BME280;13406;53.380;7.226;2023-04-26T08:47:47;101801.34;;;7.90;100.00
25498;BME280;13406;53.380;7.226;2023-04-26T08:50:14;101703.94;;;7.51;100.00
25498;BME280;13406;53.380;7.226;2023-04-26T08:52:41;101802.84;;;8.27;100.00
25498;BME280;13406;53.380;7.226;2023-04-26T08:55:10;101737.28;;;7.99;100.00
25498;BME280;13406;53.380;7.226;2023-04-26T08:57:38;101747.19;;;8.14;100.00
25498;BME280;13406;53.380;7.226;2023-04-26T09:00:05;101804.41;;;8.04;100.00
25498;BME280;13406;53.380;7.226;2023-04-26T09:02:34;101753.19;;;7.82;100.00
25498;BME280;13406;53.380;7.226;2023-04-26T09:05:00;101690.78;;;7.57;100.00
25498;BME280;13406;53.380;7.226;2023-04-26T09:07:29;101822.09;;;8.31;100.00
25498;BME280;13406;53.380;7.226;2023-04-26T09:09:57;101819.19;;;8.24;100.00
25498;BME280;13406;53.380;7.226;2023-04-26T09:12:23;101719.75;;;7.18;100.00
25498;BME280;13406;53.380;7.226;2023-04-26T09:14:49;101819.84;;;8.18;100.00
25498;BME280;13406;53.380;7.226;2023-04-26T09:17:29;101815.03;;;8.22;100.00
25498;BME280;13406;53.380;7.226;2023-04-26T09:19:55;101765.88;;;7.80;100.00
25498;BME280;13406;53.380;7.226;2023-04-26T09:22:32;101735.19;;;7.84;100.00
25498;BME280;13406;53.380;7.226;2023-04-26T09:24:58;101762.50;;;8.04;100.00
25498;BME280;13406;53.380;7.226;2023-04-26T09:27:44;101839.78;;;8.58;100.00
25498;BME280;13406;53.380;7.226;2023-04-26T09:30:12;101829.88;;;8.42;100.00
25498;BME280;13406;53.380;7.226;2023-04-26T09:32:50;101829.44;;;8.29;100.00
25498;BME280;13406;53.380;7.226;2023-04-26T09:35:31;101823.44;;;8.35;100.00
25498;BME280;13406;53.380;7.226;2023-04-26T09:38:02;101826.69;;;8.47;100.00
25498;BME280;13406;53.380;7.226;2023-04-26T09:40:30;101829.72;;;8.52;100.00
25498;BME280;13406;53.380;7.226;2023-04-26T09:43:03;101742.75;;;7.97;100.00
25498;BME280;13406;53.380;7.226;2023-04-26T09:45:31;101751.28;;;8.01;100.00
25498;BME280;13406;53.380;7.226;2023-04-26T09:50:44;101833.31;;;8.69;100.00
25498;BME280;13406;53.380;7.226;2023-04-26T09:53:11;101826.63;;;8.73;100.00
25498;BME280;13406;53.380;7.226;2023-04-26T09:55:48;101793.63;;;8.48;100.00
25498;BME280;13406;53.380;7.226;2023-04-26T09:58:14;101764.84;;;8.42;100.00
25498;BME280;13406;53.380;7.226;2023-04-26T10:00:41;101833.88;;;8.89;100.00
25498;BME280;13406;53.380;7.226;2023-04-26T10:03:07;101842.09;;;8.53;100.00
25498;BME280;13406;53.380;7.226;2023-04-26T10:05:35;101735.19;;;7.84;100.00
25498;BME280;13406;53.380;7.226;2023-04-26T10:08:01;101836.47;;;8.64;100.00
25498;BME280;13406;53.380;7.226;2023-04-26T10:10:29;101805.06;;;8.74;100.00
25498;BME280;13406;53.380;7.226;2023-04-26T10:12:55;101824.38;;;8.52;100.00
25498;BME280;13406;53.380;7.226;2023-04-26T10:15:21;101758.75;;;8.23;100.00
25498;BME280;13406;53.380;7.226;2023-04-26T10:17:46;101790.81;;;8.57;100.00
25498;BME280;13406;53.380;7.226;2023-04-26T10:20:13;101763.63;;;8.36;100.00
25498;BME280;13406;53.380;7.226;2023-04-26T10:22:44;101688.25;;;8.24;100.00
25498;BME280;13406;53.380;7.226;2023-04-26T10:25:10;101757.00;;;8.06;100.00
25498;BME280;13406;53.380;7.226;2023-04-26T10:30:10;101827.97;;;8.69;100.00
25498;BME280;13406;53.380;7.226;2023-04-26T10:35:20;101774.63;;;7.90;100.00
25498;BME280;13406;53.380;7.226;2023-04-26T10:45:41;101844.31;;;7.79;100.00
25498;BME280;13406;53.380;7.226;2023-04-26T10:48:29;101833.53;;;8.15;100.00
25498;BME280;13406;53.380;7.226;2023-04-26T10:53:24;101715.94;;;7.46;100.00
25498;BME280;13406;53.380;7.226;2023-04-26T10:55:49;101834.03;;;7.92;100.00
25498;BME280;13406;53.380;7.226;2023-04-26T10:58:30;101738.84;;;7.57;100.00
25498;BME280;13406;53.380;7.226;2023-04-26T11:03:31;101769.41;;;7.89;100.00
25498;BME280;13406;53.380;7.226;2023-04-26T11:05:57;101799.59;;;8.42;100.00
25498;BME280;13406;53.380;7.226;2023-04-26T11:08:28;101824.34;;;8.44;100.00
25498;BME280;13406;53.380;7.226;2023-04-26T11:11:11;101833.13;;;8.62;100.00
25498;BME280;13406;53.380;7.226;2023-04-26T11:13:42;101778.09;;;8.17;100.00
25498;BME280;13406;53.380;7.226;2023-04-26T11:16:14;101828.63;;;8.36;100.00
25498;BME280;13406;53.380;7.226;2023-04-26T11:18:42;101839.09;;;8.48;100.00
25498;BME280;13406;53.380;7.226;2023-04-26T11:21:08;101767.75;;;8.22;100.00
25498;BME280;13406;53.380;7.226;2023-04-26T11:23:34;101826.19;;;9.02;100.00
25498;BME280;13406;53.380;7.226;2023-04-26T11:26:09;101819.50;;;8.90;100.00
25498;BME280;13406;53.380;7.226;2023-04-26T11:28:36;101827.47;;;8.73;100.00
25498;BME280;13406;53.380;7.226;2023-04-26T11:31:03;101750.03;;;8.21;100.00
25498;BME280;13406;53.380;7.226;2023-04-26T11:33:29;101806.31;;;9.21;100.00
25498;BME280;13406;53.380;7.226;2023-04-26T11:35:56;101739.56;;;8.95;100.00
25498;BME280;13406;53.380;7.226;2023-04-26T11:38:23;101777.53;;;9.31;100.00
25498;BME280;13406;53.380;7.226;2023-04-26T11:40:59;101828.25;;;9.73;100.00
25498;BME280;13406;53.380;7.226;2023-04-26T11:45:59;101839.97;;;9.48;100.00
25498;BME280;13406;53.380;7.226;2023-04-26T11:48:26;101831.28;;;9.38;100.00
25498;BME280;13406;53.380;7.226;2023-04-26T11:50:53;101744.72;;;8.72;100.00
25498;BME280;13406;53.380;7.226;2023-04-26T11:53:18;101803.97;;;9.34;100.00
25498;BME280;13406;53.380;7.226;2023-04-26T11:55:44;101753.06;;;8.85;100.00
25498;BME280;13406;53.380;7.226;2023-04-26T11:58:11;101847.00;;;9.33;100.00
25498;BME280;13406;53.380;7.226;2023-04-26T12:01:00;101764.16;;;8.98;100.00
25498;BME280;13406;53.380;7.226;2023-04-26T12:03:30;101843.63;;;9.31;100.00
25498;BME280;13406;53.380;7.226;2023-04-26T12:05:56;101754.22;;;8.66;100.00
25498;BME280;13406;53.380;7.226;2023-04-26T12:08:26;101768.44;;;8.67;100.00
25498;BME280;13406;53.380;7.226;2023-04-26T12:10:51;101763.66;;;8.95;100.00
25498;BME280;13406;53.380;7.226;2023-04-26T12:13:18;101758.97;;;8.89;100.00
25498;BME280;13406;53.380;7.226;2023-04-26T12:15:45;101851.63;;;8.98;100.00
25498;BME280;13406;53.380;7.226;2023-04-26T12:18:12;101768.97;;;8.28;100.00
25498;BME280;13406;53.380;7.226;2023-04-26T12:20:41;101826.66;;;8.38;100.00
25498;BME280;13406;53.380;7.226;2023-04-26T12:23:13;101857.84;;;8.64;100.00
25498;BME280;13406;53.380;7.226;2023-04-26T12:25:40;101743.75;;;8.30;100.00
25498;BME280;13406;53.380;7.226;2023-04-26T12:28:09;101854.59;;;8.87;100.00
25498;BME280;13406;53.380;7.226;2023-04-26T12:30:38;101839.88;;;8.82;100.00
25498;BME280;13406;53.380;7.226;2023-04-26T12:33:04;101856.13;;;8.97;100.00
25498;BME280;13406;53.380;7.226;2023-04-26T12:35:30;101864.00;;;8.99;100.00
25498;BME280;13406;53.380;7.226;2023-04-26T12:37:56;101769.63;;;8.30;100.00
25498;BME280;13406;53.380;7.226;2023-04-26T12:40:25;101722.72;;;8.01;100.00
25498;BME280;13406;53.380;7.226;2023-04-26T12:42:51;101797.50;;;8.27;100.00
25498;BME280;13406;53.380;7.226;2023-04-26T12:45:17;101862.16;;;8.49;100.00
25498;BME280;13406;53.380;7.226;2023-04-26T12:47:46;101813.38;;;8.55;100.00
25498;BME280;13406;53.380;7.226;2023-04-26T12:50:12;101842.69;;;8.38;100.00
25498;BME280;13406;53.380;7.226;2023-04-26T12:52:39;101878.78;;;8.69;100.00
25498;BME280;13406;53.380;7.226;2023-04-26T12:55:09;101875.38;;;8.58;100.00
25498;BME280;13406;53.380;7.226;2023-04-26T12:57:36;101793.84;;;7.94;100.00
25498;BME280;13406;53.380;7.226;2023-04-26T13:00:07;101820.38;;;8.48;100.00
25498;BME280;13406;53.380;7.226;2023-04-26T13:02:34;101851.56;;;8.81;100.00
25498;BME280;13406;53.380;7.226;2023-04-26T13:05:00;101886.22;;;8.91;100.00
25498;BME280;13406;53.380;7.226;2023-04-26T13:07:31;101793.84;;;7.94;100.00
25498;BME280;13406;53.380;7.226;2023-04-26T13:09:58;101870.41;;;8.37;100.00
25498;BME280;13406;53.380;7.226;2023-04-26T13:12:23;101859.19;;;8.60;100.00